Time;durP1;ratioP1;P1;durP2;ratioP2;P2;SDS_P1;SDS_P2;PMS_P1;PMS_P2;Temp;Humidity;BMP_temperature;BMP_pressure;BME280_temperature;BME280_humidity;BME280_pressure;Samples;Min_cycle;Max_cycle;Signal;HPM_P1;HPM_P2
2023/10/24 00:00:22;;;;;;;0.50;0.50;;;;;;;10.87;100.00;95994.34;29395;203;64013;-57
2023/10/24 00:00:53;;;;;;;0.50;0.50;;;;;;;10.87;100.00;95994.34;29396;219;63004;-57
2023/10/24 00:01:27;;;;;;;0.50;0.50;;;;;;;10.86;100.00;95990.03;29396;272;63009;-58
2023/10/24 00:01:59;;;;;;;1.00;1.00;;;;;;;10.83;100.00;95982.53;29396;255;63005;-71
2023/10/24 00:02:33;;;;;;;0.50;0.50;;;;;;;10.82;100.00;95980.94;29396;207;63009;-69
2023/10/24 00:03:05;;;;;;;0.43;0.43;;;;;;;10.80;100.00;95983.94;29396;208;63007;-58
2023/10/24 00:03:36;;;;;;;0.50;0.50;;;;;;;10.78;100.00;95975.31;29396;216;63008;-57
2023/10/24 00:04:08;;;;;;;0.50;0.50;;;;;;;10.75;100.00;95974.03;29396;259;63005;-57
2023/10/24 00:04:39;;;;;;;0.50;0.50;;;;;;;10.74;100.00;95969.72;29396;238;63005;-58
2023/10/24 00:05:14;;;;;;;0.50;0.50;;;;;;;10.74;100.00;95963.53;29396;249;63010;-57
2023/10/24 00:05:47;;;;;;;1.58;1.58;;;;;;;10.74;100.00;95964.31;29395;244;64013;-58
2023/10/24 00:06:22;;;;;;;0.50;0.50;;;;;;;10.77;100.00;95967.50;29396;231;63005;-57
2023/10/24 00:06:53;;;;;;;0.50;0.50;;;;;;;10.78;100.00;95953.63;29396;219;63014;-57
2023/10/24 00:07:25;;;;;;;1.40;1.40;;;;;;;10.82;100.00;95961.94;29395;223;64009;-57
2023/10/24 00:07:56;;;;;;;0.50;0.50;;;;;;;10.81;100.00;95952.19;29396;259;63018;-58
2023/10/24 00:08:28;;;;;;;0.50;0.50;;;;;;;10.79;100.00;95957.12;29396;238;63004;-58
2023/10/24 00:08:59;;;;;;;0.50;0.50;;;;;;;10.75;100.00;95960.47;29396;271;63009;-58
2023/10/24 00:09:30;;;;;;;0.50;0.50;;;;;;;10.73;100.00;95961.94;29396;212;63004;-72
2023/10/24 00:10:07;;;;;;;0.62;0.62;;;;;;;10.71;100.00;95964.97;29396;270;63009;-58
2023/10/24 00:10:38;;;;;;;0.50;0.50;;;;;;;10.72;100.00;95955.72;29395;204;64009;-58
2023/10/24 00:11:10;;;;;;;0.50;0.50;;;;;;;10.74;100.00;95964.31;29396;208;63008;-69
2023/10/24 00:11:41;;;;;;;0.50;0.50;;;;;;;10.75;100.00;95968.63;29396;205;63005;-57
2023/10/24 00:12:12;;;;;;;0.50;0.50;;;;;;;10.75;100.00;95970.53;29396;204;63009;-57
2023/10/24 00:12:43;;;;;;;0.52;0.52;;;;;;;10.79;100.00;95976.13;29396;217;63005;-68
2023/10/24 00:13:15;;;;;;;0.50;0.50;;;;;;;10.80;100.00;95977.72;29396;216;63009;-58
2023/10/24 00:13:46;;;;;;;0.50;0.50;;;;;;;10.79;100.00;95976.13;29396;228;63010;-56
2023/10/24 00:14:17;;;;;;;0.50;0.50;;;;;;;10.78;100.00;95982.66;29396;205;63009;-56
2023/10/24 00:14:49;;;;;;;0.50;0.50;;;;;;;10.75;100.00;95982.19;29396;205;63005;-57
2023/10/24 00:15:20;;;;;;;0.50;0.50;;;;;;;10.73;100.00;95979.00;29396;197;63009;-57
2023/10/24 00:15:51;;;;;;;0.70;0.70;;;;;;;10.75;100.00;95984.09;29395;199;64009;-57
2023/10/24 00:16:22;;;;;;;0.60;0.60;;;;;;;10.78;100.00;95974.53;29396;222;63009;-55
2023/10/24 00:16:53;;;;;;;0.50;0.50;;;;;;;10.80;100.00;95983.94;29396;215;63010;-57
2023/10/24 00:17:25;;;;;;;0.50;0.50;;;;;;;10.81;100.00;95973.91;29395;202;64013;-57
2023/10/24 00:17:56;;;;;;;0.50;0.50;;;;;;;10.81;100.00;95979.31;29396;202;63004;-57
2023/10/24 00:18:28;;;;;;;0.50;0.50;;;;;;;10.80;100.00;95975.81;29396;201;63008;-57
2023/10/24 00:18:59;;;;;;;0.50;0.50;;;;;;;10.78;100.00;95986.19;29396;220;63012;-57
2023/10/24 00:19:30;;;;;;;0.50;0.50;;;;;;;10.78;100.00;95979.94;29396;228;63016;-57
2023/10/24 00:20:02;;;;;;;0.50;0.50;;;;;;;10.77;100.00;95978.34;29396;217;63005;-71
2023/10/24 00:20:35;;;;;;;0.50;0.50;;;;;;;10.78;100.00;95978.03;29396;249;63009;-57
2023/10/24 00:21:07;;;;;;;0.50;0.50;;;;;;;10.78;100.00;95979.94;29396;204;63005;-56
2023/10/24 00:21:38;;;;;;;0.50;0.50;;;;;;;10.78;100.00;95980.75;29396;196;63009;-56
2023/10/24 00:22:09;;;;;;;0.50;0.50;;;;;;;10.82;100.00;95979.00;29395;244;64009;-57
2023/10/24 00:22:40;;;;;;;3.87;3.75;;;;;;;10.84;100.00;95984.13;29396;207;63009;-57
2023/10/24 00:23:12;;;;;;;0.47;0.47;;;;;;;10.86;100.00;95981.88;29396;250;63004;-57
2023/10/24 00:23:43;;;;;;;0.60;0.60;;;;;;;10.88;100.00;95972.31;29396;245;63009;-56
2023/10/24 00:24:15;;;;;;;0.60;0.60;;;;;;;10.87;100.00;95978.88;29396;260;63004;-57
2023/10/24 00:24:46;;;;;;;0.50;0.50;;;;;;;10.86;100.00;95988.12;29396;225;63009;-57
2023/10/24 00:25:18;;;;;;;1.27;1.27;;;;;;;10.84;100.00;95984.91;29396;211;63004;-56
2023/10/24 00:25:49;;;;;;;0.50;0.50;;;;;;;10.84;100.00;95990.34;29395;229;64008;-57
2023/10/24 00:26:21;;;;;;;0.80;0.80;;;;;;;10.88;100.00;95985.09;29395;233;64009;-58
2023/10/24 00:26:52;;;;;;;1.12;1.12;;;;;;;10.88;100.00;95990.53;29396;238;63014;-56
2023/10/24 00:27:23;;;;;;;0.50;0.50;;;;;;;10.89;100.00;95981.25;29396;200;63005;-57
2023/10/24 00:27:55;;;;;;;0.50;0.50;;;;;;;10.89;100.00;95992.13;29396;212;63009;-57
2023/10/24 00:28:26;;;;;;;0.50;0.50;;;;;;;10.87;100.00;95989.72;29395;230;64005;-57
2023/10/24 00:28:57;;;;;;;0.50;0.50;;;;;;;10.84;100.00;95989.53;29396;214;63009;-57
2023/10/24 00:29:28;;;;;;;0.50;0.50;;;;;;;10.83;100.00;95987.94;29396;257;63005;-57
2023/10/24 00:30:00;;;;;;;1.20;1.20;;;;;;;10.82;100.00;95983.63;29396;265;63009;-57
2023/10/24 00:30:31;;;;;;;0.50;0.50;;;;;;;10.82;100.00;95980.94;29396;231;63004;-56
2023/10/24 00:31:06;;;;;;;0.50;0.50;;;;;;;10.83;100.00;95983.31;29396;202;63009;-57
2023/10/24 00:31:39;;;;;;;0.60;0.60;;;;;;;10.84;100.00;95984.13;29395;231;64009;-57
2023/10/24 00:32:11;;;;;;;0.50;0.50;;;;;;;10.83;100.00;95985.22;29396;264;63009;-71
2023/10/24 00:32:43;;;;;;;0.50;0.50;;;;;;;10.84;100.00;95989.53;29396;215;63004;-57
2023/10/24 00:33:14;;;;;;;0.50;0.50;;;;;;;10.83;100.00;95988.75;29396;249;63008;-57
2023/10/24 00:33:45;;;;;;;0.55;0.55;;;;;;;10.84;100.00;95984.13;29395;224;64009;-58
2023/10/24 00:34:17;;;;;;;0.50;0.50;;;;;;;10.82;100.00;95981.72;29397;202;63009;-70
2023/10/24 00:34:49;;;;;;;0.60;0.60;;;;;;;10.84;100.00;95990.34;29397;228;63005;-56
2023/10/24 00:35:20;;;;;;;0.50;0.50;;;;;;;10.85;100.00;95993.88;29397;200;63013;-69
2023/10/24 00:35:53;;;;;;;0.50;0.50;;;;;;;10.84;100.00;95987.62;29396;216;64009;-57
2023/10/24 00:36:29;;;;;;;0.50;0.50;;;;;;;10.83;100.00;95988.75;29396;214;64013;-70
2023/10/24 00:37:01;;;;;;;0.50;0.50;;;;;;;10.83;100.00;96002.31;29397;202;63003;-57
2023/10/24 00:37:32;;;;;;;0.50;0.50;;;;;;;10.83;100.00;95998.81;29397;376;63009;-58
2023/10/24 00:38:03;;;;;;;0.50;0.50;;;;;;;10.83;100.00;95998.81;29397;247;63004;-57
2023/10/24 00:38:35;;;;;;;0.50;0.50;;;;;;;10.84;100.00;96003.12;29397;202;63009;-56
2023/10/24 00:39:08;;;;;;;0.50;0.50;;;;;;;10.84;100.00;96011.25;29397;199;63004;-57
2023/10/24 00:39:39;;;;;;;0.50;0.50;;;;;;;10.82;100.00;96008.06;29396;207;64013;-57
2023/10/24 00:40:12;;;;;;;0.50;0.50;;;;;;;10.82;100.00;96003.44;29397;250;63004;-57
2023/10/24 00:40:43;;;;;;;0.50;0.50;;;;;;;10.87;100.00;96010.62;29397;202;63008;-57
2023/10/24 00:41:14;;;;;;;0.50;0.50;;;;;;;10.90;100.00;96010.00;29397;215;63005;-57
2023/10/24 00:41:45;;;;;;;0.50;0.50;;;;;;;10.91;100.00;96011.59;29397;219;63009;-56
2023/10/24 00:42:16;;;;;;;7.97;7.57;;;;;;;10.91;100.00;96008.88;29397;223;63005;-57
2023/10/24 00:42:52;;;;;;;0.50;0.50;;;;;;;10.91;100.00;96008.88;29397;251;63009;-56
2023/10/24 00:43:26;;;;;;;0.50;0.50;;;;;;;10.90;100.00;96007.28;29397;211;63005;-56
2023/10/24 00:43:57;;;;;;;0.50;0.50;;;;;;;10.90;100.00;96010.00;29397;199;63009;-56
2023/10/24 00:44:29;;;;;;;0.50;0.50;;;;;;;10.91;100.00;96001.53;29397;206;63005;-56
2023/10/24 00:45:00;;;;;;;0.50;0.50;;;;;;;10.96;99.99;95997.88;29396;211;64013;-56
2023/10/24 00:45:34;;;;;;;0.50;0.50;;;;;;;10.97;99.86;95999.50;29397;260;63004;-55
2023/10/24 00:46:06;;;;;;;0.57;0.57;;;;;;;10.97;99.40;95994.06;29397;237;63009;-56
2023/10/24 00:46:40;;;;;;;3.00;2.80;;;;;;;10.96;99.86;95992.47;29396;198;63004;-56
2023/10/24 00:47:12;;;;;;;0.60;0.60;;;;;;;10.96;99.52;95995.16;29396;265;63009;-55
2023/10/24 00:47:44;;;;;;;0.50;0.50;;;;;;;10.98;99.73;95998.38;29396;212;63004;-56
2023/10/24 00:48:16;;;;;;;0.50;0.50;;;;;;;10.96;99.77;95997.88;29396;233;63008;-56
2023/10/24 00:48:48;;;;;;;0.50;0.50;;;;;;;10.94;99.64;95997.41;29396;217;63005;-57
2023/10/24 00:49:20;;;;;;;0.50;0.50;;;;;;;10.92;100.00;95992.28;29395;226;64014;-56
2023/10/24 00:49:52;;;;;;;0.55;0.55;;;;;;;10.94;99.83;95997.41;29396;211;63005;-56
2023/10/24 00:50:24;;;;;;;0.50;0.50;;;;;;;10.94;100.00;95991.97;29395;227;64009;-56
2023/10/24 00:50:57;;;;;;;0.50;0.50;;;;;;;10.93;100.00;95999.31;29396;203;63005;-57
2023/10/24 00:51:29;;;;;;;0.50;0.50;;;;;;;10.92;100.00;95996.91;29396;244;63023;-57
2023/10/24 00:52:00;;;;;;;0.50;0.50;;;;;;;10.88;100.00;95998.66;29396;241;63005;-56
2023/10/24 00:52:34;;;;;;;0.50;0.50;;;;;;;10.88;100.00;96004.09;29395;300;64013;-56
2023/10/24 00:53:06;;;;;;;0.50;0.50;;;;;;;10.85;100.00;96002.81;29396;197;63004;-56
2023/10/24 00:53:37;;;;;;;0.50;0.50;;;;;;;10.85;100.00;96000.09;29396;208;63009;-73
2023/10/24 00:54:10;;;;;;;0.50;0.50;;;;;;;10.87;100.00;96005.19;29396;230;63004;-58
2023/10/24 00:54:42;;;;;;;0.50;0.50;;;;;;;10.88;100.00;95996.75;29396;203;63009;-56
2023/10/24 00:55:14;;;;;;;0.50;0.50;;;;;;;10.89;100.00;96002.97;29396;237;63004;-57
2023/10/24 00:55:46;;;;;;;1.02;0.90;;;;;;;10.90;100.00;96001.84;29396;233;63015;-57
2023/10/24 00:56:19;;;;;;;0.40;0.40;;;;;;;10.90;100.00;96002.66;29396;203;63005;-57
2023/10/24 00:56:51;;;;;;;0.50;0.50;;;;;;;10.90;100.00;96010.00;29396;228;63017;-56
2023/10/24 00:57:24;;;;;;;0.50;0.50;;;;;;;10.89;100.00;96006.50;29395;210;64009;-56
2023/10/24 00:58:00;;;;;;;0.50;0.50;;;;;;;10.92;100.00;96003.16;29396;251;63024;-57
2023/10/24 00:58:33;;;;;;;1.73;1.73;;;;;;;10.94;100.00;96005.53;29396;203;63005;-57
2023/10/24 00:59:06;;;;;;;0.50;0.50;;;;;;;10.92;100.00;96002.34;29396;198;63009;-57
2023/10/24 00:59:38;;;;;;;2.40;2.30;;;;;;;10.92;100.00;95999.63;29396;202;63005;-56
2023/10/24 01:00:12;;;;;;;0.50;0.50;;;;;;;10.92;100.00;95991.50;29395;216;64013;-70
2023/10/24 01:00:44;;;;;;;0.90;0.90;;;;;;;10.95;100.00;95996.28;29396;199;63014;-56
2023/10/24 01:01:17;;;;;;;0.50;0.50;;;;;;;10.95;100.00;96001.72;29396;236;63009;-57
2023/10/24 01:01:49;;;;;;;0.50;0.50;;;;;;;10.94;100.00;95994.69;29396;223;63004;-56
2023/10/24 01:02:21;;;;;;;0.60;0.60;;;;;;;10.91;99.97;95995.31;29396;199;63009;-56
2023/10/24 01:02:54;;;;;;;0.50;0.50;;;;;;;10.92;100.00;95991.50;29396;209;63004;-58
2023/10/24 01:03:27;;;;;;;0.50;0.50;;;;;;;10.90;100.00;95988.28;29396;243;63008;-56
2023/10/24 01:04:03;;;;;;;0.50;0.50;;;;;;;10.88;100.00;95995.94;29396;232;63005;-56
2023/10/24 01:04:35;;;;;;;0.50;0.50;;;;;;;10.87;100.00;95994.34;29395;250;64014;-57
2023/10/24 01:05:08;;;;;;;0.90;0.90;;;;;;;10.86;100.00;95998.19;29396;215;63019;-58
2023/10/24 01:05:40;;;;;;;0.50;0.50;;;;;;;10.84;100.00;95990.34;29396;196;63009;-56
2023/10/24 01:06:12;;;;;;;0.77;0.77;;;;;;;10.84;100.00;95984.91;29396;217;63000;-57
2023/10/24 01:06:43;;;;;;;0.50;0.50;;;;;;;10.86;100.00;95981.88;29396;213;63009;-57
2023/10/24 01:07:14;;;;;;;0.50;0.50;;;;;;;10.87;100.00;95983.50;29395;198;64009;-58
2023/10/24 01:07:46;;;;;;;0.50;0.50;;;;;;;10.88;100.00;95979.66;29396;388;63009;-57
2023/10/24 01:08:17;;;;;;;0.50;0.50;;;;;;;10.88;100.00;95974.22;29395;242;64004;-58
2023/10/24 01:08:49;;;;;;;0.50;0.50;;;;;;;10.88;100.00;95971.53;29396;202;63009;-56
2023/10/24 01:09:25;;;;;;;0.50;0.50;;;;;;;10.87;100.00;95972.62;29396;202;63004;-69
2023/10/24 01:09:57;;;;;;;0.60;0.60;;;;;;;10.87;100.00;95967.22;29396;245;63009;-57
2023/10/24 01:10:28;;;;;;;0.50;0.50;;;;;;;10.86;100.00;95968.31;29396;201;63004;-57
2023/10/24 01:11:00;;;;;;;0.50;0.50;;;;;;;10.86;100.00;95965.59;29396;249;63008;-57
2023/10/24 01:11:32;;;;;;;0.50;0.50;;;;;;;10.84;100.00;95962.41;29397;227;63005;-56
2023/10/24 01:12:06;;;;;;;0.50;0.50;;;;;;;10.82;100.00;95970.88;29396;199;63009;-57
2023/10/24 01:12:39;;;;;;;0.50;0.50;;;;;;;10.83;100.00;95960.81;29396;213;63005;-57
2023/10/24 01:13:10;;;;;;;0.65;0.65;;;;;;;10.84;100.00;95962.41;29396;242;63009;-56
2023/10/24 01:13:41;;;;;;;0.50;0.50;;;;;;;10.80;100.00;95966.88;29395;239;64009;-58
2023/10/24 01:14:14;;;;;;;0.50;0.50;;;;;;;10.82;100.00;95970.06;29396;261;63009;-57
2023/10/24 01:14:46;;;;;;;0.50;0.50;;;;;;;10.81;100.00;95969.28;29396;236;63008;-57
2023/10/24 01:15:17;;;;;;;0.50;0.50;;;;;;;10.81;100.00;95971.19;29396;209;63009;-57
2023/10/24 01:15:49;;;;;;;0.50;0.50;;;;;;;10.79;100.00;95973.41;29396;228;63004;-57
2023/10/24 01:16:21;;;;;;;0.50;0.50;;;;;;;10.78;100.00;95972.62;29396;243;63009;-72
2023/10/24 01:16:52;;;;;;;0.50;0.50;;;;;;;10.78;100.00;95971.81;29396;196;63004;-71
2023/10/24 01:17:24;;;;;;;0.50;0.50;;;;;;;10.77;100.00;95964.78;29396;227;63008;-57
2023/10/24 01:17:58;;;;;;;0.50;0.50;;;;;;;10.79;100.00;95976.13;29395;204;64008;-58
2023/10/24 01:18:29;;;;;;;0.50;0.50;;;;;;;10.79;100.00;95965.28;29395;202;64008;-57
2023/10/24 01:19:01;;;;;;;0.50;0.50;;;;;;;10.80;100.00;95961.44;29397;299;63005;-57
2023/10/24 01:19:32;;;;;;;0.50;0.50;;;;;;;10.80;100.00;95956.00;29396;251;63009;-56
2023/10/24 01:20:04;;;;;;;0.50;0.50;;;;;;;10.80;100.00;95964.97;29396;303;63005;-57
2023/10/24 01:20:39;;;;;;;0.50;0.50;;;;;;;10.82;100.00;95960.00;29396;213;63009;-55
2023/10/24 01:21:14;;;;;;;0.50;0.50;;;;;;;10.84;100.00;95956.97;29396;215;63005;-57
2023/10/24 01:21:47;;;;;;;0.57;0.57;;;;;;;10.86;100.00;95957.47;29396;199;63014;-70
2023/10/24 01:22:18;;;;;;;0.50;0.50;;;;;;;10.86;100.00;95960.97;29396;248;63004;-57
2023/10/24 01:22:50;;;;;;;0.50;0.50;;;;;;;10.87;100.00;95961.78;29396;197;63009;-57
2023/10/24 01:23:22;;;;;;;0.50;0.50;;;;;;;10.87;100.00;95953.63;29395;212;64009;-56
2023/10/24 01:23:54;;;;;;;0.50;0.50;;;;;;;10.91;100.00;95954.59;29396;219;63012;-57
2023/10/24 01:24:27;;;;;;;0.50;0.50;;;;;;;10.91;100.00;95958.12;29396;265;63004;-57
2023/10/24 01:24:58;;;;;;;0.75;0.75;;;;;;;10.93;99.81;95955.88;29397;288;63008;-68
2023/10/24 01:25:30;;;;;;;0.50;0.50;;;;;;;10.96;99.82;95962.59;29396;222;63005;-56
2023/10/24 01:26:02;;;;;;;0.50;0.50;;;;;;;11.00;99.07;95969.00;29396;248;63009;-56
2023/10/24 01:26:34;;;;;;;0.50;0.50;;;;;;;11.01;98.52;95967.88;29396;241;63005;-56
2023/10/24 01:27:05;;;;;;;0.50;0.50;;;;;;;11.00;98.82;95960.84;29395;224;64014;-56
2023/10/24 01:27:38;;;;;;;0.50;0.50;;;;;;;11.01;99.04;95962.44;29396;224;63005;-69
2023/10/24 01:28:09;;;;;;;0.50;0.50;;;;;;;11.02;99.16;95958.62;29396;216;63017;-56
2023/10/24 01:28:40;;;;;;;0.50;0.50;;;;;;;11.04;98.70;95961.81;29396;208;63005;-56
2023/10/24 01:29:12;;;;;;;0.50;0.50;;;;;;;11.03;98.38;95957.50;29396;214;63009;-56
2023/10/24 01:29:43;;;;;;;0.50;0.50;;;;;;;11.04;98.62;95950.97;29396;208;63004;-56
2023/10/24 01:30:14;;;;;;;0.50;0.50;;;;;;;11.04;98.47;95950.97;29396;208;63009;-57
2023/10/24 01:30:46;;;;;;;0.50;0.50;;;;;;;11.06;98.39;95954.16;29396;220;63004;-55
2023/10/24 01:31:17;;;;;;;0.50;0.50;;;;;;;11.06;98.29;95951.44;29395;205;64002;-56
2023/10/24 01:31:49;;;;;;;0.50;0.50;;;;;;;11.05;97.97;95958.00;29395;216;64009;-56
2023/10/24 01:32:30;;;;;;;0.50;0.50;;;;;;;11.05;98.32;95949.84;29396;305;63008;-56
2023/10/24 01:33:02;;;;;;;0.50;0.50;;;;;;;11.04;98.41;95950.97;29418;246;63010;-56
2023/10/24 01:33:33;;;;;;;0.50;0.50;;;;;;;11.03;98.32;95952.06;29396;235;63009;-56
2023/10/24 01:34:05;;;;;;;0.50;0.50;;;;;;;11.04;98.53;95945.53;29396;264;63005;-55
2023/10/24 01:34:36;;;;;;;0.50;0.50;;;;;;;11.06;98.23;95949.53;29395;204;64014;-70
2023/10/24 01:35:09;;;;;;;0.80;0.80;;;;;;;11.06;97.86;95948.72;29395;227;64009;-56
2023/10/24 01:35:41;;;;;;;0.50;0.50;;;;;;;11.09;97.48;95938.00;29396;251;63009;-56
2023/10/24 01:36:12;;;;;;;0.50;0.50;;;;;;;11.11;97.24;95945.03;29396;200;64005;-67
2023/10/24 01:36:44;;;;;;;0.50;0.50;;;;;;;11.12;97.08;95944.72;29397;222;63009;-56
2023/10/24 01:37:15;;;;;;;0.50;0.50;;;;;;;11.13;97.35;95949.03;29397;228;63004;-66
2023/10/24 01:37:47;;;;;;;0.50;0.50;;;;;;;11.14;96.80;95945.19;29397;229;63009;-56
2023/10/24 01:38:18;;;;;;;0.50;0.50;;;;;;;11.14;97.07;95955.25;29397;237;63004;-56
2023/10/24 01:38:50;;;;;;;0.50;0.50;;;;;;;11.14;97.13;95950.62;29397;214;63009;-56
2023/10/24 01:39:21;;;;;;;0.50;0.50;;;;;;;11.14;97.06;95949.81;29395;212;64009;-56
2023/10/24 01:39:53;;;;;;;0.50;0.50;;;;;;;11.13;97.33;95954.47;29397;209;63008;-55
2023/10/24 01:40:24;;;;;;;0.50;0.50;;;;;;;11.12;97.26;95952.84;29395;235;63004;-56
2023/10/24 01:40:57;;;;;;;0.85;0.85;;;;;;;11.12;97.31;95952.84;29395;235;63009;-71
2023/10/24 01:41:29;;;;;;;0.50;0.50;;;;;;;11.16;96.88;95953.03;29395;205;63005;-55
2023/10/24 01:42:00;;;;;;;0.50;0.50;;;;;;;11.18;96.39;95946.16;29395;248;63009;-55
2023/10/24 01:42:31;;;;;;;0.50;0.50;;;;;;;11.19;96.31;95942.31;29393;238;64009;-56
2023/10/24 01:43:03;;;;;;;1.17;1.17;;;;;;;11.21;96.05;95942.00;29395;225;63009;-70
2023/10/24 01:43:34;;;;;;;0.98;0.98;;;;;;;11.22;96.06;95943.59;29395;205;63005;-56
2023/10/24 01:44:06;;;;;;;0.50;0.50;;;;;;;11.20;95.73;95949.34;29395;252;63009;-57
2023/10/24 01:44:37;;;;;;;0.50;0.50;;;;;;;11.20;96.02;95951.28;29395;229;63005;-57
2023/10/24 01:45:11;;;;;;;0.50;0.50;;;;;;;11.21;96.49;95945.53;29395;204;63009;-56
2023/10/24 01:45:42;;;;;;;0.40;0.40;;;;;;;11.20;96.56;95943.91;29395;227;63004;-56
2023/10/24 01:46:13;;;;;;;0.50;0.50;;;;;;;11.21;96.24;95945.53;29395;206;63009;-56
2023/10/24 01:46:44;;;;;;;1.40;1.40;;;;;;;11.24;95.79;95950.31;29395;238;63004;-56
2023/10/24 01:47:19;;;;;;;0.50;0.50;;;;;;;11.24;95.88;95944.88;29395;225;63008;-57
2023/10/24 01:47:54;;;;;;;0.50;0.50;;;;;;;11.22;95.86;95941.69;29393;203;64008;-55
2023/10/24 01:48:26;;;;;;;0.70;0.70;;;;;;;11.22;96.02;95938.97;29393;217;64014;-56
2023/10/24 01:48:57;;;;;;;0.50;0.50;;;;;;;11.24;96.20;95938.66;29395;267;63005;-71
2023/10/24 01:49:29;;;;;;;0.50;0.50;;;;;;;11.22;95.75;95936.25;29395;204;63009;-56
2023/10/24 01:50:00;;;;;;;0.50;0.50;;;;;;;11.22;96.14;95947.13;29395;197;63005;-57
2023/10/24 01:50:32;;;;;;;0.50;0.50;;;;;;;11.20;96.13;95954.78;29393;229;64013;-69
2023/10/24 01:51:04;;;;;;;0.40;0.40;;;;;;;11.20;96.35;95953.97;29395;252;63005;-56
2023/10/24 01:51:35;;;;;;;0.50;0.50;;;;;;;11.18;96.49;95943.44;29395;241;63009;-56
2023/10/24 01:52:07;;;;;;;0.50;0.50;;;;;;;11.19;96.89;95939.59;29395;245;63000;-56
2023/10/24 01:52:38;;;;;;;0.50;0.50;;;;;;;11.18;96.81;95938.00;29395;213;63009;-56
2023/10/24 01:53:09;;;;;;;0.50;0.50;;;;;;;11.19;96.86;95942.31;29395;219;63004;-57
2023/10/24 01:53:40;;;;;;;0.50;0.50;;;;;;;11.19;96.34;95946.97;29395;224;63009;-56
2023/10/24 01:54:12;;;;;;;0.50;0.50;;;;;;;11.18;96.70;95946.16;29395;203;63004;-57
2023/10/24 01:54:44;;;;;;;0.50;0.50;;;;;;;11.18;96.60;95946.16;29395;197;63026;-56
2023/10/24 01:55:15;;;;;;;0.50;0.50;;;;;;;11.19;96.95;95947.75;29395;257;63004;-56
2023/10/24 01:55:47;;;;;;;0.50;0.50;;;;;;;11.20;96.63;95943.91;29393;197;64014;-57
2023/10/24 01:56:18;;;;;;;0.50;0.50;;;;;;;11.21;96.29;95945.53;29395;215;63005;-70
2023/10/24 01:56:49;;;;;;;0.50;0.50;;;;;;;11.21;96.29;95947.44;29394;246;64009;-56
2023/10/24 01:57:20;;;;;;;1.05;1.05;;;;;;;11.21;96.86;95948.22;29395;208;63005;-56
2023/10/24 01:57:52;;;;;;;0.40;0.40;;;;;;;11.21;96.51;95956.38;29394;202;63009;-58
2023/10/24 01:58:23;;;;;;;0.50;0.50;;;;;;;11.20;96.89;95953.97;29395;202;63017;-56
2023/10/24 01:58:54;;;;;;;0.50;0.50;;;;;;;11.22;96.61;95955.25;29395;218;63009;-57
2023/10/24 01:59:25;;;;;;;0.50;0.50;;;;;;;11.22;96.28;95951.75;29395;224;63010;-56
2023/10/24 01:59:56;;;;;;;0.50;0.50;;;;;;;11.23;96.26;95950.62;29395;262;63009;-56
2023/10/24 02:00:28;;;;;;;0.50;0.50;;;;;;;11.23;96.41;95947.91;29395;218;63004;-56
2023/10/24 02:00:59;;;;;;;0.50;0.50;;;;;;;11.24;96.30;95944.09;29393;207;64013;-56
2023/10/24 02:01:30;;;;;;;0.50;0.50;;;;;;;11.25;96.34;95951.91;29395;258;63004;-58
2023/10/24 02:02:02;;;;;;;0.50;0.50;;;;;;;11.27;95.68;95952.41;29395;219;63009;-56
2023/10/24 02:02:33;;;;;;;0.50;0.50;;;;;;;11.28;95.75;95955.91;29395;208;63004;-56
2023/10/24 02:03:04;;;;;;;1.25;1.25;;;;;;;11.33;95.55;95953.84;29393;214;64013;-55
2023/10/24 02:03:35;;;;;;;0.50;0.50;;;;;;;11.36;94.63;95952.41;29395;214;63005;-56
2023/10/24 02:04:07;;;;;;;0.50;0.50;;;;;;;11.37;94.56;95949.38;29395;214;63009;-56
2023/10/24 02:04:39;;;;;;;0.50;0.50;;;;;;;11.36;94.64;95964.06;29395;206;63005;-55
2023/10/24 02:05:12;;;;;;;0.50;0.50;;;;;;;11.37;94.58;95960.22;29395;241;63005;-57
2023/10/24 02:05:43;;;;;;;0.50;0.50;;;;;;;11.38;94.49;95952.88;29395;221;63005;-56
2023/10/24 02:06:14;;;;;;;0.50;0.50;;;;;;;11.37;94.54;95960.22;29395;238;63009;-56
2023/10/24 02:06:46;;;;;;;0.50;0.50;;;;;;;11.37;95.04;95962.94;29395;222;63005;-56
2023/10/24 02:07:19;;;;;;;0.50;0.50;;;;;;;11.36;95.24;95958.62;29395;255;63019;-56
2023/10/24 02:07:51;;;;;;;0.50;0.50;;;;;;;11.36;95.31;95963.25;29395;202;63004;-57
2023/10/24 02:08:23;;;;;;;0.50;0.50;;;;;;;11.36;95.65;95953.19;29393;212;64013;-57
2023/10/24 02:08:54;;;;;;;0.50;0.50;;;;;;;11.38;95.19;95961.81;29393;251;64009;-56
2023/10/24 02:09:27;;;;;;;0.50;0.50;;;;;;;11.37;95.47;95968.37;29393;236;64013;-57
2023/10/24 02:10:00;;;;;;;0.50;0.50;;;;;;;11.36;95.50;95964.06;29395;223;63004;-56
2023/10/24 02:10:31;;;;;;;0.93;0.93;;;;;;;11.38;95.30;95964.53;29395;256;63008;-57
2023/10/24 02:11:03;;;;;;;1.98;1.95;;;;;;;11.39;94.83;95966.12;29395;217;63005;-56
2023/10/24 02:11:34;;;;;;;0.50;0.50;;;;;;;11.42;94.15;95962.00;29395;222;63009;-57
2023/10/24 02:12:07;;;;;;;0.50;0.50;;;;;;;11.41;94.33;95961.19;29395;223;63005;-56
2023/10/24 02:12:38;;;;;;;0.50;0.50;;;;;;;11.40;94.16;95962.31;29395;226;63009;-56
2023/10/24 02:13:09;;;;;;;0.50;0.50;;;;;;;11.42;94.13;95953.84;29395;213;63010;-56
2023/10/24 02:13:40;;;;;;;0.50;0.50;;;;;;;11.43;93.75;95962.78;29394;256;64013;-57
2023/10/24 02:14:11;;;;;;;0.50;0.50;;;;;;;11.41;93.78;95955.75;29395;218;63000;-57
2023/10/24 02:14:43;;;;;;;0.50;0.50;;;;;;;11.43;93.57;95953.50;29395;262;63009;-56
2023/10/24 02:15:14;;;;;;;0.50;0.50;;;;;;;11.43;93.64;95950.78;29395;213;63004;-56
2023/10/24 02:15:46;;;;;;;0.50;0.50;;;;;;;11.46;93.86;95951.25;29395;206;63009;-57
2023/10/24 02:16:17;;;;;;;0.50;0.50;;;;;;;11.46;93.62;95959.41;29395;271;63004;-56
2023/10/24 02:16:48;;;;;;;0.50;0.50;;;;;;;11.47;93.33;95958.28;29395;254;63009;-57
2023/10/24 02:17:19;;;;;;;0.50;0.50;;;;;;;11.47;93.13;95969.16;29394;273;64009;-57
2023/10/24 02:17:51;;;;;;;0.50;0.50;;;;;;;11.46;93.38;95964.84;29395;203;63009;-56
2023/10/24 02:18:22;;;;;;;2.08;1.98;;;;;;;11.46;93.55;95970.28;29395;244;63011;-56
2023/10/24 02:18:53;;;;;;;0.50;0.50;;;;;;;11.46;93.32;95959.41;29395;231;63009;-57
2023/10/24 02:19:26;;;;;;;0.50;0.50;;;;;;;11.45;93.47;95966.75;29395;216;63005;-56
2023/10/24 02:19:57;;;;;;;0.50;0.50;;;;;;;11.45;93.22;95966.75;29395;230;63009;-57
2023/10/24 02:20:28;;;;;;;0.50;0.50;;;;;;;11.49;93.30;95966.91;29395;196;63005;-56
2023/10/24 02:20:59;;;;;;;0.50;0.50;;;;;;;11.47;92.81;95964.50;29395;203;63009;-56
2023/10/24 02:21:30;;;;;;;0.50;0.50;;;;;;;11.46;93.40;95964.84;29395;275;63005;-57
2023/10/24 02:22:02;;;;;;;0.68;0.68;;;;;;;11.49;92.82;95964.19;29395;189;63009;-57
2023/10/24 02:22:33;;;;;;;0.60;0.60;;;;;;;11.49;92.77;95964.19;29393;250;64009;-57
2023/10/24 02:23:04;;;;;;;0.50;0.50;;;;;;;11.50;92.87;95968.50;29395;237;63009;-56
2023/10/24 02:23:39;;;;;;;0.50;0.50;;;;;;;11.49;93.04;95966.91;29395;227;63014;-72
2023/10/24 02:24:10;;;;;;;0.50;0.50;;;;;;;11.48;93.13;95965.31;29394;225;64013;-57
2023/10/24 02:24:42;;;;;;;0.50;0.50;;;;;;;11.47;93.15;95964.50;29395;219;63004;-56
2023/10/24 02:25:14;;;;;;;0.50;0.50;;;;;;;11.47;92.94;95961.00;29395;206;63009;-58
2023/10/24 02:25:48;;;;;;;0.50;0.50;;;;;;;11.44;93.38;95967.88;29395;227;63005;-72
2023/10/24 02:26:20;;;;;;;0.50;0.50;;;;;;;11.46;93.37;95962.13;29395;229;63009;-56
2023/10/24 02:26:51;;;;;;;0.50;0.50;;;;;;;11.49;93.09;95948.69;29395;250;63005;-55
2023/10/24 02:27:22;;;;;;;0.60;0.60;;;;;;;11.49;92.65;95959.56;29395;274;63009;-57
2023/10/24 02:27:53;;;;;;;0.75;0.75;;;;;;;11.48;92.79;95955.25;29395;235;63005;-56
2023/10/24 02:28:24;;;;;;;0.60;0.60;;;;;;;11.48;93.08;95951.72;29395;197;63009;-58
2023/10/24 02:28:57;;;;;;;0.50;0.50;;;;;;;11.46;92.86;95957.47;29394;267;64009;-56
2023/10/24 02:29:33;;;;;;;0.50;0.50;;;;;;;11.46;92.98;95953.97;29395;196;63017;-56
2023/10/24 02:30:06;;;;;;;3.15;3.05;;;;;;;11.43;93.23;95964.34;29395;239;63004;-57
2023/10/24 02:30:38;;;;;;;0.50;0.50;;;;;;;11.40;93.14;95967.75;29395;204;63009;-57
2023/10/24 02:31:12;;;;;;;0.50;0.50;;;;;;;11.39;93.50;95963.44;29395;248;63004;-57